Terminal Aerodrome Forecast
Issued by NWS Northern Indiana

Home | Current Version | Previous Version | Text Only | Print | Product List | Glossary On
Versions: 1 2 3 4 5 6 7 8 9 10 11 12 13 14
000
FTUS43 KIWX 042339
TAFFWA
TAF
KFWA 042339Z 0500/0524 20003KT P6SM VCSH SCT030 BKN060
     FM050200 19003KT P6SM SCT040 BKN080
     FM050900 19003KT 5SM BR SCT040 BKN100
      TEMPO 0510/0512 2SM BR
     FM051400 22006KT P6SM SCT040=

USA.gov is the U.S. government's official web portal to all federal, state and local government web resources and services.